sensor_id;sensor_type;location;lat;lon;timestamp;temperature;humidity
21090;DHT22;10703;51.020;6.128;2023-07-09T00:01:21;21.60;99.90
21090;DHT22;10703;51.020;6.128;2023-07-09T00:03:48;21.60;99.90
21090;DHT22;10703;51.020;6.128;2023-07-09T00:06:18;21.40;99.90
21090;DHT22;10703;51.020;6.128;2023-07-09T00:08:48;21.30;99.90
21090;DHT22;10703;51.020;6.128;2023-07-09T00:11:15;21.20;99.90
21090;DHT22;10703;51.020;6.128;2023-07-09T00:13:42;21.10;99.90
21090;DHT22;10703;51.020;6.128;2023-07-09T00:16:24;21.00;99.90
21090;DHT22;10703;51.020;6.128;2023-07-09T00:18:52;21.00;99.90
21090;DHT22;10703;51.020;6.128;2023-07-09T00:21:20;21.00;99.90
21090;DHT22;10703;51.020;6.128;2023-07-09T00:23:47;21.20;99.90
21090;DHT22;10703;51.020;6.128;2023-07-09T00:26:17;21.00;99.90
21090;DHT22;10703;51.020;6.128;2023-07-09T00:28:49;20.90;99.90
21090;DHT22;10703;51.020;6.128;2023-07-09T00:31:16;20.80;99.90
21090;DHT22;10703;51.020;6.128;2023-07-09T00:33:44;20.70;99.90
21090;DHT22;10703;51.020;6.128;2023-07-09T00:36:26;20.70;99.90
21090;DHT22;10703;51.020;6.128;2023-07-09T00:38:54;20.70;99.90
21090;DHT22;10703;51.020;6.128;2023-07-09T00:41:23;20.60;99.90
21090;DHT22;10703;51.020;6.128;2023-07-09T00:43:51;20.50;99.90
21090;DHT22;10703;51.020;6.128;2023-07-09T00:48:56;20.40;99.90
21090;DHT22;10703;51.020;6.128;2023-07-09T00:51:26;20.40;99.90
21090;DHT22;10703;51.020;6.128;2023-07-09T00:53:57;20.40;99.90
21090;DHT22;10703;51.020;6.128;2023-07-09T00:56:31;20.40;99.90
21090;DHT22;10703;51.020;6.128;2023-07-09T00:59:00;20.30;99.90
21090;DHT22;10703;51.020;6.128;2023-07-09T01:01:33;20.40;99.90
21090;DHT22;10703;51.020;6.128;2023-07-09T01:04:02;20.50;99.90
21090;DHT22;10703;51.020;6.128;2023-07-09T01:06:41;20.40;99.90
21090;DHT22;10703;51.020;6.128;2023-07-09T01:09:09;20.40;99.90
21090;DHT22;10703;51.020;6.128;2023-07-09T01:11:36;20.40;99.90
21090;DHT22;10703;51.020;6.128;2023-07-09T01:14:08;20.40;99.90
21090;DHT22;10703;51.020;6.128;2023-07-09T01:16:52;20.30;99.90
21090;DHT22;10703;51.020;6.128;2023-07-09T01:19:25;20.30;99.90
21090;DHT22;10703;51.020;6.128;2023-07-09T01:21:57;20.20;99.90
21090;DHT22;10703;51.020;6.128;2023-07-09T01:27:31;20.20;99.90
21090;DHT22;10703;51.020;6.128;2023-07-09T01:30:01;20.20;99.90
21090;DHT22;10703;51.020;6.128;2023-07-09T01:32:28;20.10;99.90
21090;DHT22;10703;51.020;6.128;2023-07-09T01:34:59;20.10;99.90
21090;DHT22;10703;51.020;6.128;2023-07-09T01:37:33;20.00;99.90
21090;DHT22;10703;51.020;6.128;2023-07-09T01:40:00;20.00;99.90
21090;DHT22;10703;51.020;6.128;2023-07-09T01:42:27;20.00;99.90
21090;DHT22;10703;51.020;6.128;2023-07-09T01:44:55;20.00;99.90
21090;DHT22;10703;51.020;6.128;2023-07-09T01:47:22;20.00;99.90
21090;DHT22;10703;51.020;6.128;2023-07-09T01:49:51;19.90;99.90
21090;DHT22;10703;51.020;6.128;2023-07-09T01:52:28;19.80;99.90
21090;DHT22;10703;51.020;6.128;2023-07-09T01:54:56;19.90;99.90
21090;DHT22;10703;51.020;6.128;2023-07-09T01:57:25;19.90;99.90
21090;DHT22;10703;51.020;6.128;2023-07-09T01:59:53;19.80;99.90
21090;DHT22;10703;51.020;6.128;2023-07-09T02:02:22;19.80;99.90
21090;DHT22;10703;51.020;6.128;2023-07-09T02:04:50;19.90;99.90
21090;DHT22;10703;51.020;6.128;2023-07-09T02:07:18;19.90;99.90
21090;DHT22;10703;51.020;6.128;2023-07-09T02:09:45;19.90;99.90
21090;DHT22;10703;51.020;6.128;2023-07-09T02:12:13;19.90;99.90
21090;DHT22;10703;51.020;6.128;2023-07-09T02:14:41;19.90;99.90
21090;DHT22;10703;51.020;6.128;2023-07-09T02:17:09;19.90;99.90
21090;DHT22;10703;51.020;6.128;2023-07-09T02:19:37;19.80;99.90
21090;DHT22;10703;51.020;6.128;2023-07-09T02:22:04;19.70;99.90
21090;DHT22;10703;51.020;6.128;2023-07-09T02:24:32;19.70;99.90
21090;DHT22;10703;51.020;6.128;2023-07-09T02:27:00;19.60;99.90
21090;DHT22;10703;51.020;6.128;2023-07-09T02:29:29;19.60;99.90
21090;DHT22;10703;51.020;6.128;2023-07-09T02:31:57;19.50;99.90
21090;DHT22;10703;51.020;6.128;2023-07-09T02:34:28;19.50;99.90
21090;DHT22;10703;51.020;6.128;2023-07-09T02:36:56;19.50;99.90
21090;DHT22;10703;51.020;6.128;2023-07-09T02:39:23;19.50;99.90
21090;DHT22;10703;51.020;6.128;2023-07-09T02:41:50;19.50;99.90
21090;DHT22;10703;51.020;6.128;2023-07-09T02:44:18;19.50;99.90
21090;DHT22;10703;51.020;6.128;2023-07-09T02:46:45;19.50;99.90
21090;DHT22;10703;51.020;6.128;2023-07-09T02:49:13;19.40;99.90
21090;DHT22;10703;51.020;6.128;2023-07-09T02:51:40;19.40;99.90
21090;DHT22;10703;51.020;6.128;2023-07-09T02:54:07;19.40;99.90
21090;DHT22;10703;51.020;6.128;2023-07-09T02:56:34;19.40;99.90
21090;DHT22;10703;51.020;6.128;2023-07-09T02:59:00;19.40;99.90
21090;DHT22;10703;51.020;6.128;2023-07-09T03:01:27;19.30;99.90
21090;DHT22;10703;51.020;6.128;2023-07-09T03:03:54;19.20;99.90
21090;DHT22;10703;51.020;6.128;2023-07-09T03:06:22;19.10;99.90
21090;DHT22;10703;51.020;6.128;2023-07-09T03:08:49;19.10;99.90
21090;DHT22;10703;51.020;6.128;2023-07-09T03:11:17;19.10;99.90
21090;DHT22;10703;51.020;6.128;2023-07-09T03:13:44;19.10;99.90
21090;DHT22;10703;51.020;6.128;2023-07-09T03:16:11;19.10;99.90
21090;DHT22;10703;51.020;6.128;2023-07-09T03:18:38;19.10;99.90
21090;DHT22;10703;51.020;6.128;2023-07-09T03:21:04;19.10;99.90
21090;DHT22;10703;51.020;6.128;2023-07-09T03:23:31;19.10;99.90
21090;DHT22;10703;51.020;6.128;2023-07-09T03:25:58;19.20;99.90
21090;DHT22;10703;51.020;6.128;2023-07-09T03:28:27;19.20;99.90
21090;DHT22;10703;51.020;6.128;2023-07-09T03:30:54;19.20;99.90
21090;DHT22;10703;51.020;6.128;2023-07-09T03:33:22;19.20;99.90
21090;DHT22;10703;51.020;6.128;2023-07-09T03:35:50;19.30;99.90
21090;DHT22;10703;51.020;6.128;2023-07-09T03:38:17;19.30;99.90
21090;DHT22;10703;51.020;6.128;2023-07-09T03:40:44;19.30;99.90
21090;DHT22;10703;51.020;6.128;2023-07-09T03:43:11;19.40;99.90
21090;DHT22;10703;51.020;6.128;2023-07-09T03:45:38;19.40;99.90
21090;DHT22;10703;51.020;6.128;2023-07-09T03:48:05;19.30;99.90
21090;DHT22;10703;51.020;6.128;2023-07-09T03:50:32;19.40;99.90
21090;DHT22;10703;51.020;6.128;2023-07-09T03:52:59;19.20;99.90
21090;DHT22;10703;51.020;6.128;2023-07-09T03:55:26;19.30;99.90
21090;DHT22;10703;51.020;6.128;2023-07-09T03:57:56;19.40;99.90
21090;DHT22;10703;51.020;6.128;2023-07-09T04:00:24;19.50;99.90
21090;DHT22;10703;51.020;6.128;2023-07-09T04:02:51;19.50;99.90
21090;DHT22;10703;51.020;6.128;2023-07-09T04:05:18;19.50;99.90
21090;DHT22;10703;51.020;6.128;2023-07-09T04:07:45;19.60;99.90
21090;DHT22;10703;51.020;6.128;2023-07-09T04:10:13;19.60;99.90
21090;DHT22;10703;51.020;6.128;2023-07-09T04:12:40;19.60;99.90
21090;DHT22;10703;51.020;6.128;2023-07-09T04:15:07;19.70;99.90
21090;DHT22;10703;51.020;6.128;2023-07-09T04:17:34;19.70;99.90
21090;DHT22;10703;51.020;6.128;2023-07-09T04:20:02;19.80;99.90
21090;DHT22;10703;51.020;6.128;2023-07-09T04:22:32;20.00;99.90
21090;DHT22;10703;51.020;6.128;2023-07-09T04:24:59;20.00;99.90
21090;DHT22;10703;51.020;6.128;2023-07-09T04:27:26;20.10;99.90
21090;DHT22;10703;51.020;6.128;2023-07-09T04:29:55;20.20;99.90
21090;DHT22;10703;51.020;6.128;2023-07-09T04:32:22;20.30;99.90
21090;DHT22;10703;51.020;6.128;2023-07-09T04:34:49;20.40;99.90
21090;DHT22;10703;51.020;6.128;2023-07-09T04:37:16;20.50;99.90
21090;DHT22;10703;51.020;6.128;2023-07-09T04:39:43;20.50;99.90
21090;DHT22;10703;51.020;6.128;2023-07-09T04:42:15;20.60;99.90
21090;DHT22;10703;51.020;6.128;2023-07-09T04:44:44;20.70;99.90
21090;DHT22;10703;51.020;6.128;2023-07-09T04:47:11;20.70;99.90
21090;DHT22;10703;51.020;6.128;2023-07-09T04:49:41;20.80;99.90
21090;DHT22;10703;51.020;6.128;2023-07-09T04:52:08;20.90;99.90
21090;DHT22;10703;51.020;6.128;2023-07-09T04:54:40;20.90;99.90
21090;DHT22;10703;51.020;6.128;2023-07-09T04:57:11;20.90;99.90
21090;DHT22;10703;51.020;6.128;2023-07-09T04:59:38;21.00;99.90
21090;DHT22;10703;51.020;6.128;2023-07-09T05:02:05;21.00;99.90
21090;DHT22;10703;51.020;6.128;2023-07-09T05:04:32;21.20;99.90
21090;DHT22;10703;51.020;6.128;2023-07-09T05:06:59;21.30;99.90
21090;DHT22;10703;51.020;6.128;2023-07-09T05:09:25;21.50;99.90
21090;DHT22;10703;51.020;6.128;2023-07-09T05:11:52;21.50;99.90
21090;DHT22;10703;51.020;6.128;2023-07-09T05:14:19;21.60;99.90
21090;DHT22;10703;51.020;6.128;2023-07-09T05:16:46;21.60;99.90
21090;DHT22;10703;51.020;6.128;2023-07-09T05:19:12;21.80;99.90
21090;DHT22;10703;51.020;6.128;2023-07-09T05:21:39;21.80;99.90
21090;DHT22;10703;51.020;6.128;2023-07-09T05:24:06;21.90;99.90
21090;DHT22;10703;51.020;6.128;2023-07-09T05:26:32;21.90;99.90
21090;DHT22;10703;51.020;6.128;2023-07-09T05:28:59;22.10;99.90
21090;DHT22;10703;51.020;6.128;2023-07-09T05:31:26;22.30;99.90
21090;DHT22;10703;51.020;6.128;2023-07-09T05:33:53;22.40;99.90
21090;DHT22;10703;51.020;6.128;2023-07-09T05:36:19;22.40;99.90
21090;DHT22;10703;51.020;6.128;2023-07-09T05:38:46;22.40;99.90
21090;DHT22;10703;51.020;6.128;2023-07-09T05:41:13;22.70;99.90
21090;DHT22;10703;51.020;6.128;2023-07-09T05:43:44;22.70;99.90
21090;DHT22;10703;51.020;6.128;2023-07-09T05:46:12;22.90;99.90
21090;DHT22;10703;51.020;6.128;2023-07-09T05:48:39;23.00;99.90
21090;DHT22;10703;51.020;6.128;2023-07-09T05:51:06;23.30;99.90
21090;DHT22;10703;51.020;6.128;2023-07-09T05:53:32;23.50;99.90
21090;DHT22;10703;51.020;6.128;2023-07-09T05:56:00;23.80;99.90
21090;DHT22;10703;51.020;6.128;2023-07-09T05:58:27;23.90;99.90
21090;DHT22;10703;51.020;6.128;2023-07-09T06:00:54;24.00;99.90
21090;DHT22;10703;51.020;6.128;2023-07-09T06:03:24;24.30;99.90
21090;DHT22;10703;51.020;6.128;2023-07-09T06:05:53;24.30;99.90
21090;DHT22;10703;51.020;6.128;2023-07-09T06:08:20;24.50;99.90
21090;DHT22;10703;51.020;6.128;2023-07-09T06:11:05;24.50;99.90
21090;DHT22;10703;51.020;6.128;2023-07-09T06:13:33;24.60;99.90
21090;DHT22;10703;51.020;6.128;2023-07-09T06:16:00;24.70;99.90
21090;DHT22;10703;51.020;6.128;2023-07-09T06:18:28;24.90;99.90
21090;DHT22;10703;51.020;6.128;2023-07-09T06:20:58;25.10;99.90
21090;DHT22;10703;51.020;6.128;2023-07-09T06:23:26;25.20;99.90
21090;DHT22;10703;51.020;6.128;2023-07-09T06:25:53;25.30;99.90
21090;DHT22;10703;51.020;6.128;2023-07-09T06:28:24;25.50;99.90
21090;DHT22;10703;51.020;6.128;2023-07-09T06:30:51;25.70;99.90
21090;DHT22;10703;51.020;6.128;2023-07-09T06:33:19;25.90;99.90
21090;DHT22;10703;51.020;6.128;2023-07-09T06:35:50;26.10;99.90
21090;DHT22;10703;51.020;6.128;2023-07-09T06:38:18;26.20;99.90
21090;DHT22;10703;51.020;6.128;2023-07-09T06:40:45;26.50;99.90
21090;DHT22;10703;51.020;6.128;2023-07-09T06:43:12;26.60;99.90
21090;DHT22;10703;51.020;6.128;2023-07-09T06:45:48;27.10;99.90
21090;DHT22;10703;51.020;6.128;2023-07-09T06:48:15;27.40;99.90
21090;DHT22;10703;51.020;6.128;2023-07-09T06:50:41;27.80;99.90
21090;DHT22;10703;51.020;6.128;2023-07-09T06:53:08;28.50;99.90
21090;DHT22;10703;51.020;6.128;2023-07-09T06:55:36;29.30;99.90
21090;DHT22;10703;51.020;6.128;2023-07-09T06:58:02;29.60;99.90
21090;DHT22;10703;51.020;6.128;2023-07-09T07:00:29;30.10;99.90
21090;DHT22;10703;51.020;6.128;2023-07-09T07:02:55;30.40;99.90
21090;DHT22;10703;51.020;6.128;2023-07-09T07:05:22;30.80;99.90
21090;DHT22;10703;51.020;6.128;2023-07-09T07:07:49;31.00;99.90
21090;DHT22;10703;51.020;6.128;2023-07-09T07:10:16;31.10;99.90
21090;DHT22;10703;51.020;6.128;2023-07-09T07:12:46;31.60;99.90
21090;DHT22;10703;51.020;6.128;2023-07-09T07:15:15;31.90;99.90
21090;DHT22;10703;51.020;6.128;2023-07-09T07:17:42;31.20;99.90
21090;DHT22;10703;51.020;6.128;2023-07-09T07:20:10;30.40;99.90
21090;DHT22;10703;51.020;6.128;2023-07-09T07:22:37;30.40;99.90
21090;DHT22;10703;51.020;6.128;2023-07-09T07:25:09;30.40;99.90
21090;DHT22;10703;51.020;6.128;2023-07-09T07:27:36;30.40;99.90
21090;DHT22;10703;51.020;6.128;2023-07-09T07:30:05;31.30;99.90
21090;DHT22;10703;51.020;6.128;2023-07-09T07:32:42;30.90;99.90
21090;DHT22;10703;51.020;6.128;2023-07-09T07:35:09;30.90;99.90
21090;DHT22;10703;51.020;6.128;2023-07-09T07:37:36;31.30;99.90
21090;DHT22;10703;51.020;6.128;2023-07-09T07:40:03;31.40;99.90
21090;DHT22;10703;51.020;6.128;2023-07-09T07:42:31;31.50;99.90
21090;DHT22;10703;51.020;6.128;2023-07-09T07:44:58;31.10;99.90
21090;DHT22;10703;51.020;6.128;2023-07-09T07:47:25;33.00;99.90
21090;DHT22;10703;51.020;6.128;2023-07-09T07:49:54;32.90;99.90
21090;DHT22;10703;51.020;6.128;2023-07-09T07:52:20;33.00;99.90
21090;DHT22;10703;51.020;6.128;2023-07-09T07:54:47;32.90;99.90
21090;DHT22;10703;51.020;6.128;2023-07-09T07:57:14;34.00;99.20
21090;DHT22;10703;51.020;6.128;2023-07-09T07:59:40;34.30;97.90
21090;DHT22;10703;51.020;6.128;2023-07-09T08:02:12;33.30;98.90
21090;DHT22;10703;51.020;6.128;2023-07-09T08:04:40;33.20;98.70
21090;DHT22;10703;51.020;6.128;2023-07-09T08:07:08;33.60;97.90
21090;DHT22;10703;51.020;6.128;2023-07-09T08:09:35;33.60;98.20
21090;DHT22;10703;51.020;6.128;2023-07-09T08:12:03;34.20;98.10
21090;DHT22;10703;51.020;6.128;2023-07-09T08:14:39;35.10;96.70
21090;DHT22;10703;51.020;6.128;2023-07-09T08:17:06;35.90;96.20
21090;DHT22;10703;51.020;6.128;2023-07-09T08:19:45;35.70;95.70
21090;DHT22;10703;51.020;6.128;2023-07-09T08:22:12;36.40;95.20
21090;DHT22;10703;51.020;6.128;2023-07-09T08:24:39;36.20;94.40
21090;DHT22;10703;51.020;6.128;2023-07-09T08:27:07;35.40;94.90
21090;DHT22;10703;51.020;6.128;2023-07-09T08:29:34;36.10;94.50
21090;DHT22;10703;51.020;6.128;2023-07-09T08:32:02;36.60;94.50
21090;DHT22;10703;51.020;6.128;2023-07-09T08:34:29;36.20;94.80
21090;DHT22;10703;51.020;6.128;2023-07-09T08:36:55;36.00;94.40
21090;DHT22;10703;51.020;6.128;2023-07-09T08:39:22;36.60;94.20
21090;DHT22;10703;51.020;6.128;2023-07-09T08:42:03;37.80;93.10
21090;DHT22;10703;51.020;6.128;2023-07-09T08:50:14;37.40;92.50
21090;DHT22;10703;51.020;6.128;2023-07-09T08:52:44;37.50;91.90
21090;DHT22;10703;51.020;6.128;2023-07-09T08:55:20;37.50;92.10
21090;DHT22;10703;51.020;6.128;2023-07-09T08:57:50;36.80;92.60
21090;DHT22;10703;51.020;6.128;2023-07-09T09:00:28;38.20;91.10
21090;DHT22;10703;51.020;6.128;2023-07-09T09:03:04;38.70;91.10
21090;DHT22;10703;51.020;6.128;2023-07-09T09:05:33;39.10;90.20
21090;DHT22;10703;51.020;6.128;2023-07-09T09:08:10;39.00;90.10
21090;DHT22;10703;51.020;6.128;2023-07-09T09:10:46;38.70;90.00
21090;DHT22;10703;51.020;6.128;2023-07-09T09:13:25;38.50;89.80
21090;DHT22;10703;51.020;6.128;2023-07-09T09:15:54;38.50;88.80
21090;DHT22;10703;51.020;6.128;2023-07-09T09:18:28;39.80;88.90
21090;DHT22;10703;51.020;6.128;2023-07-09T09:23:38;40.00;86.50
21090;DHT22;10703;51.020;6.128;2023-07-09T09:26:45;40.20;86.60
21090;DHT22;10703;51.020;6.128;2023-07-09T09:29:12;40.20;86.30
21090;DHT22;10703;51.020;6.128;2023-07-09T09:31:41;39.10;86.10
21090;DHT22;10703;51.020;6.128;2023-07-09T09:34:21;39.60;86.00
21090;DHT22;10703;51.020;6.128;2023-07-09T09:36:48;39.70;86.40
21090;DHT22;10703;51.020;6.128;2023-07-09T09:39:16;40.00;86.60
21090;DHT22;10703;51.020;6.128;2023-07-09T09:41:44;38.90;86.10
21090;DHT22;10703;51.020;6.128;2023-07-09T09:44:25;39.90;86.00
21090;DHT22;10703;51.020;6.128;2023-07-09T09:46:52;39.70;84.40
21090;DHT22;10703;51.020;6.128;2023-07-09T09:49:24;39.80;83.70
21090;DHT22;10703;51.020;6.128;2023-07-09T09:51:51;40.70;82.90
21090;DHT22;10703;51.020;6.128;2023-07-09T09:54:21;41.20;80.60
21090;DHT22;10703;51.020;6.128;2023-07-09T09:56:49;41.40;80.00
21090;DHT22;10703;51.020;6.128;2023-07-09T09:59:19;41.50;79.00
21090;DHT22;10703;51.020;6.128;2023-07-09T10:01:46;41.90;79.00
21090;DHT22;10703;51.020;6.128;2023-07-09T10:04:18;42.20;77.70
21090;DHT22;10703;51.020;6.128;2023-07-09T10:07:07;42.60;77.50
21090;DHT22;10703;51.020;6.128;2023-07-09T10:09:56;42.00;75.50
21090;DHT22;10703;51.020;6.128;2023-07-09T10:15:34;43.00;73.10
21090;DHT22;10703;51.020;6.128;2023-07-09T10:20:45;42.50;73.30
21090;DHT22;10703;51.020;6.128;2023-07-09T10:26:27;41.30;71.70
21090;DHT22;10703;51.020;6.128;2023-07-09T10:29:22;41.20;74.50
21090;DHT22;10703;51.020;6.128;2023-07-09T10:35:16;42.70;70.60
21090;DHT22;10703;51.020;6.128;2023-07-09T10:40:46;43.40;70.10
21090;DHT22;10703;51.020;6.128;2023-07-09T10:46:14;43.60;70.30
21090;DHT22;10703;51.020;6.128;2023-07-09T10:48:46;43.20;67.50
21090;DHT22;10703;51.020;6.128;2023-07-09T10:54:15;42.20;67.00
21090;DHT22;10703;51.020;6.128;2023-07-09T10:56:47;42.60;65.20
21090;DHT22;10703;51.020;6.128;2023-07-09T10:59:27;43.50;65.00
21090;DHT22;10703;51.020;6.128;2023-07-09T11:02:13;44.20;63.70
21090;DHT22;10703;51.020;6.128;2023-07-09T11:04:56;44.60;64.80
21090;DHT22;10703;51.020;6.128;2023-07-09T11:07:30;42.50;63.10
21090;DHT22;10703;51.020;6.128;2023-07-09T11:10:02;42.30;64.90
21090;DHT22;10703;51.020;6.128;2023-07-09T11:12:43;40.20;66.70
21090;DHT22;10703;51.020;6.128;2023-07-09T11:15:37;40.50;65.10
21090;DHT22;10703;51.020;6.128;2023-07-09T11:18:07;41.20;66.70
21090;DHT22;10703;51.020;6.128;2023-07-09T11:20:42;41.50;64.50
21090;DHT22;10703;51.020;6.128;2023-07-09T11:23:20;41.10;71.70
21090;DHT22;10703;51.020;6.128;2023-07-09T11:26:01;40.50;70.00
21090;DHT22;10703;51.020;6.128;2023-07-09T11:28:35;40.00;70.50
21090;DHT22;10703;51.020;6.128;2023-07-09T11:31:20;39.90;70.00
21090;DHT22;10703;51.020;6.128;2023-07-09T11:33:59;39.80;70.30
21090;DHT22;10703;51.020;6.128;2023-07-09T11:36:29;39.90;71.50
21090;DHT22;10703;51.020;6.128;2023-07-09T11:38:56;40.10;73.70
21090;DHT22;10703;51.020;6.128;2023-07-09T11:41:37;40.50;70.20
21090;DHT22;10703;51.020;6.128;2023-07-09T11:46:39;40.10;69.30
21090;DHT22;10703;51.020;6.128;2023-07-09T11:49:08;40.30;70.10
21090;DHT22;10703;51.020;6.128;2023-07-09T11:51:45;40.30;70.10
21090;DHT22;10703;51.020;6.128;2023-07-09T11:54:13;40.50;69.80
21090;DHT22;10703;51.020;6.128;2023-07-09T11:56:40;40.40;68.20
21090;DHT22;10703;51.020;6.128;2023-07-09T11:59:10;40.00;69.60
21090;DHT22;10703;51.020;6.128;2023-07-09T12:01:44;39.70;69.70
21090;DHT22;10703;51.020;6.128;2023-07-09T12:04:17;39.80;70.90
21090;DHT22;10703;51.020;6.128;2023-07-09T12:06:46;40.10;71.50
21090;DHT22;10703;51.020;6.128;2023-07-09T12:09:16;40.30;69.90
21090;DHT22;10703;51.020;6.128;2023-07-09T12:11:48;39.80;70.90
21090;DHT22;10703;51.020;6.128;2023-07-09T12:14:21;39.60;71.50
21090;DHT22;10703;51.020;6.128;2023-07-09T12:16:50;39.80;70.50
21090;DHT22;10703;51.020;6.128;2023-07-09T12:19:20;39.50;73.00
21090;DHT22;10703;51.020;6.128;2023-07-09T12:21:56;39.10;74.10
21090;DHT22;10703;51.020;6.128;2023-07-09T12:24:26;38.40;72.60
21090;DHT22;10703;51.020;6.128;2023-07-09T12:27:01;38.30;73.90
21090;DHT22;10703;51.020;6.128;2023-07-09T12:29:34;37.90;75.20
21090;DHT22;10703;51.020;6.128;2023-07-09T12:32:16;37.30;75.50
21090;DHT22;10703;51.020;6.128;2023-07-09T12:34:49;36.90;77.40
21090;DHT22;10703;51.020;6.128;2023-07-09T12:37:16;36.40;77.60
21090;DHT22;10703;51.020;6.128;2023-07-09T12:39:43;36.30;79.60
21090;DHT22;10703;51.020;6.128;2023-07-09T12:42:23;36.00;79.00
21090;DHT22;10703;51.020;6.128;2023-07-09T12:44:51;35.80;80.00
21090;DHT22;10703;51.020;6.128;2023-07-09T12:47:18;35.40;79.30
21090;DHT22;10703;51.020;6.128;2023-07-09T12:49:46;35.00;79.80
21090;DHT22;10703;51.020;6.128;2023-07-09T12:52:21;34.60;81.10
21090;DHT22;10703;51.020;6.128;2023-07-09T12:54:59;33.80;86.20
21090;DHT22;10703;51.020;6.128;2023-07-09T12:57:27;32.30;90.70
21090;DHT22;10703;51.020;6.128;2023-07-09T12:59:55;31.10;94.30
21090;DHT22;10703;51.020;6.128;2023-07-09T13:02:28;28.80;99.90
21090;DHT22;10703;51.020;6.128;2023-07-09T13:05:16;27.60;99.90
21090;DHT22;10703;51.020;6.128;2023-07-09T13:07:49;25.20;99.90
21090;DHT22;10703;51.020;6.128;2023-07-09T13:10:18;23.80;99.90
21090;DHT22;10703;51.020;6.128;2023-07-09T13:12:49;22.10;99.90
21090;DHT22;10703;51.020;6.128;2023-07-09T13:15:26;21.20;99.90
21090;DHT22;10703;51.020;6.128;2023-07-09T13:17:58;21.20;99.90
21090;DHT22;10703;51.020;6.128;2023-07-09T13:20:26;21.00;99.90
21090;DHT22;10703;51.020;6.128;2023-07-09T13:22:52;20.70;99.90
21090;DHT22;10703;51.020;6.128;2023-07-09T13:25:19;20.70;99.90
21090;DHT22;10703;51.020;6.128;2023-07-09T13:28:15;21.20;99.90
21090;DHT22;10703;51.020;6.128;2023-07-09T13:30:42;20.90;99.90
21090;DHT22;10703;51.020;6.128;2023-07-09T13:33:10;20.90;99.90
21090;DHT22;10703;51.020;6.128;2023-07-09T13:35:37;20.90;99.90
21090;DHT22;10703;51.020;6.128;2023-07-09T13:38:12;21.00;99.90
21090;DHT22;10703;51.020;6.128;2023-07-09T13:40:39;20.90;99.90
21090;DHT22;10703;51.020;6.128;2023-07-09T13:43:13;21.00;99.90
21090;DHT22;10703;51.020;6.128;2023-07-09T13:45:40;21.40;99.90
21090;DHT22;10703;51.020;6.128;2023-07-09T13:48:14;21.70;99.90
21090;DHT22;10703;51.020;6.128;2023-07-09T13:50:44;20.30;99.90
21090;DHT22;10703;51.020;6.128;2023-07-09T13:53:15;19.50;99.90
21090;DHT22;10703;51.020;6.128;2023-07-09T13:55:42;19.50;99.90
21090;DHT22;10703;51.020;6.128;2023-07-09T13:58:11;19.60;99.90
21090;DHT22;10703;51.020;6.128;2023-07-09T14:00:39;20.70;99.90
21090;DHT22;10703;51.020;6.128;2023-07-09T14:03:20;21.40;99.90
21090;DHT22;10703;51.020;6.128;2023-07-09T14:05:48;21.60;99.90
21090;DHT22;10703;51.020;6.128;2023-07-09T14:08:15;21.50;99.90
21090;DHT22;10703;51.020;6.128;2023-07-09T14:10:43;21.30;99.90
21090;DHT22;10703;51.020;6.128;2023-07-09T14:13:18;21.10;99.90
21090;DHT22;10703;51.020;6.128;2023-07-09T14:15:47;21.00;99.90
21090;DHT22;10703;51.020;6.128;2023-07-09T14:18:18;20.90;99.90
21090;DHT22;10703;51.020;6.128;2023-07-09T14:20:46;20.90;99.90
21090;DHT22;10703;51.020;6.128;2023-07-09T14:23:15;20.80;99.90
21090;DHT22;10703;51.020;6.128;2023-07-09T14:25:44;20.90;99.90
21090;DHT22;10703;51.020;6.128;2023-07-09T14:28:16;21.00;99.90
21090;DHT22;10703;51.020;6.128;2023-07-09T14:30:44;21.10;99.90
21090;DHT22;10703;51.020;6.128;2023-07-09T14:33:14;21.20;99.90
21090;DHT22;10703;51.020;6.128;2023-07-09T14:35:41;21.20;99.90
21090;DHT22;10703;51.020;6.128;2023-07-09T14:38:23;21.30;99.90
21090;DHT22;10703;51.020;6.128;2023-07-09T14:40:52;21.50;99.90
21090;DHT22;10703;51.020;6.128;2023-07-09T14:43:20;21.50;99.90
21090;DHT22;10703;51.020;6.128;2023-07-09T14:45:48;21.60;99.90
21090;DHT22;10703;51.020;6.128;2023-07-09T14:48:18;21.60;99.90
21090;DHT22;10703;51.020;6.128;2023-07-09T14:50:45;21.50;99.90
21090;DHT22;10703;51.020;6.128;2023-07-09T14:53:23;21.50;99.90
21090;DHT22;10703;51.020;6.128;2023-07-09T14:55:52;21.60;99.90
21090;DHT22;10703;51.020;6.128;2023-07-09T14:58:21;21.60;99.90
21090;DHT22;10703;51.020;6.128;2023-07-09T15:00:49;21.70;99.90
21090;DHT22;10703;51.020;6.128;2023-07-09T15:03:24;22.00;99.90
21090;DHT22;10703;51.020;6.128;2023-07-09T15:05:52;22.10;99.90
21090;DHT22;10703;51.020;6.128;2023-07-09T15:08:23;22.20;99.90
21090;DHT22;10703;51.020;6.128;2023-07-09T15:10:51;22.30;99.90
21090;DHT22;10703;51.020;6.128;2023-07-09T15:13:31;22.50;99.90
21090;DHT22;10703;51.020;6.128;2023-07-09T15:15:59;22.50;99.90
21090;DHT22;10703;51.020;6.128;2023-07-09T15:18:26;22.50;99.90
21090;DHT22;10703;51.020;6.128;2023-07-09T15:20:57;22.50;99.90
21090;DHT22;10703;51.020;6.128;2023-07-09T15:23:25;22.60;99.90
21090;DHT22;10703;51.020;6.128;2023-07-09T15:25:53;22.60;99.90
21090;DHT22;10703;51.020;6.128;2023-07-09T15:28:21;22.60;99.90
21090;DHT22;10703;51.020;6.128;2023-07-09T15:30:48;22.80;99.90
21090;DHT22;10703;51.020;6.128;2023-07-09T15:33:17;23.00;99.90
21090;DHT22;10703;51.020;6.128;2023-07-09T15:35:46;23.20;99.90
21090;DHT22;10703;51.020;6.128;2023-07-09T15:38:25;23.20;99.90
21090;DHT22;10703;51.020;6.128;2023-07-09T15:40:52;23.40;99.90
21090;DHT22;10703;51.020;6.128;2023-07-09T15:43:19;23.50;99.90
21090;DHT22;10703;51.020;6.128;2023-07-09T15:45:48;23.40;99.90
21090;DHT22;10703;51.020;6.128;2023-07-09T15:48:22;23.50;99.90
21090;DHT22;10703;51.020;6.128;2023-07-09T15:50:50;23.90;99.90
21090;DHT22;10703;51.020;6.128;2023-07-09T15:53:19;24.00;99.90
21090;DHT22;10703;51.020;6.128;2023-07-09T15:55:48;24.20;99.90
21090;DHT22;10703;51.020;6.128;2023-07-09T15:58:19;24.40;99.90
21090;DHT22;10703;51.020;6.128;2023-07-09T16:00:48;24.90;99.90
21090;DHT22;10703;51.020;6.128;2023-07-09T16:03:15;25.20;99.90
21090;DHT22;10703;51.020;6.128;2023-07-09T16:05:47;25.50;99.90
21090;DHT22;10703;51.020;6.128;2023-07-09T16:08:14;25.50;99.90
21090;DHT22;10703;51.020;6.128;2023-07-09T16:10:41;25.60;99.90
21090;DHT22;10703;51.020;6.128;2023-07-09T16:13:23;25.90;99.90
21090;DHT22;10703;51.020;6.128;2023-07-09T16:15:51;26.00;99.90
21090;DHT22;10703;51.020;6.128;2023-07-09T16:18:18;26.20;99.90
21090;DHT22;10703;51.020;6.128;2023-07-09T16:20:46;26.30;99.90
21090;DHT22;10703;51.020;6.128;2023-07-09T16:23:18;26.40;99.90
21090;DHT22;10703;51.020;6.128;2023-07-09T16:25:46;26.40;99.90